createdAt,value
2018-12-18T00:01:55.689Z,26.30
2018-12-18T00:04:23.101Z,23.93
2018-12-18T00:06:50.523Z,24.43
2018-12-18T00:09:17.947Z,27.40
2018-12-18T00:11:45.384Z,19.90
2018-12-18T00:14:12.805Z,23.23
2018-12-18T00:16:40.253Z,25.83
2018-12-18T00:19:07.649Z,22.63
2018-12-18T00:21:35.070Z,20.60
2018-12-18T00:24:02.500Z,22.37
2018-12-18T00:26:29.992Z,24.20
2018-12-18T00:28:57.470Z,24.37
2018-12-18T00:31:24.864Z,24.50
2018-12-18T00:33:52.297Z,30.20
2018-12-18T00:36:19.704Z,32.10
2018-12-18T00:38:47.152Z,23.20
2018-12-18T00:41:14.557Z,26.80
2018-12-18T00:43:41.997Z,27.27
2018-12-18T00:46:09.423Z,21.23
2018-12-18T00:48:36.838Z,24.77
2018-12-18T00:51:04.272Z,28.43
2018-12-18T00:53:31.688Z,30.57
2018-12-18T00:55:59.108Z,21.60
2018-12-18T00:58:26.519Z,26.20
2018-12-18T01:00:53.936Z,26.07
2018-12-18T01:03:21.390Z,27.13
2018-12-18T01:05:48.804Z,22.93
2018-12-18T01:08:16.228Z,23.77
2018-12-18T01:10:43.653Z,21.07
2018-12-18T01:13:11.080Z,29.87
2018-12-18T01:15:38.543Z,28.27
2018-12-18T01:18:05.926Z,31.13
2018-12-18T01:20:33.350Z,21.73
2018-12-18T01:23:00.780Z,28.30
2018-12-18T01:25:28.210Z,29.83
2018-12-18T01:27:55.632Z,27.40
2018-12-18T01:30:23.107Z,27.50
2018-12-18T01:32:50.533Z,22.63
2018-12-18T01:35:17.972Z,23.93
2018-12-18T01:37:45.375Z,24.77
2018-12-18T01:40:12.779Z,26.73
2018-12-18T01:42:40.255Z,23.70
2018-12-18T01:45:08.658Z,24.80
2018-12-18T01:47:36.091Z,23.03
2018-12-18T01:50:03.493Z,21.83
2018-12-18T01:52:30.943Z,23.77
2018-12-18T01:54:58.351Z,25.87
2018-12-18T01:57:25.769Z,25.30
2018-12-18T01:59:53.175Z,24.30
2018-12-18T02:02:20.607Z,23.37
2018-12-18T02:04:48.015Z,25.70
2018-12-18T02:07:15.421Z,24.20
2018-12-18T02:09:42.855Z,24.47
2018-12-18T02:12:10.268Z,25.97
2018-12-18T02:14:37.700Z,27.87
2018-12-18T02:17:05.113Z,27.10
2018-12-18T02:19:32.544Z,29.53
2018-12-18T02:21:59.960Z,24.90
2018-12-18T02:24:27.404Z,27.03
2018-12-18T02:26:54.806Z,29.70
2018-12-18T02:29:22.332Z,29.43
2018-12-18T02:31:49.793Z,27.17
2018-12-18T02:34:17.213Z,27.97
2018-12-18T02:36:44.617Z,25.70
2018-12-18T02:39:12.067Z,28.20
2018-12-18T02:41:39.497Z,21.50
2018-12-18T02:44:06.902Z,23.27
2018-12-18T02:46:34.342Z,23.37
2018-12-18T02:49:01.752Z,34.47
2018-12-18T02:51:29.185Z,24.20
2018-12-18T02:53:56.602Z,21.27
2018-12-18T02:56:24.026Z,23.17
2018-12-18T02:58:51.459Z,26.87
2018-12-18T03:01:18.854Z,22.20
2018-12-18T03:03:46.280Z,29.07
2018-12-18T03:06:13.722Z,17.93
2018-12-18T03:08:41.145Z,15.33
2018-12-18T03:11:08.585Z,16.60
2018-12-18T03:13:36.011Z,24.03
2018-12-18T03:16:03.420Z,22.77
2018-12-18T03:18:30.838Z,17.20
2018-12-18T03:20:58.276Z,21.67
2018-12-18T03:23:25.675Z,24.63
2018-12-18T03:25:53.086Z,12.93
2018-12-18T03:28:20.590Z,24.30
2018-12-18T03:30:47.996Z,20.17
2018-12-18T03:33:15.407Z,21.00
2018-12-18T03:35:42.885Z,17.27
2018-12-18T03:38:10.289Z,16.37
2018-12-18T03:40:37.711Z,15.90
2018-12-18T03:43:05.115Z,16.73
2018-12-18T03:45:32.561Z,19.17
2018-12-18T03:48:00.017Z,19.07
2018-12-18T03:50:27.443Z,15.13
2018-12-18T03:52:54.883Z,22.23
2018-12-18T03:55:22.265Z,19.37
2018-12-18T03:57:49.700Z,16.70
2018-12-18T04:00:17.129Z,17.30
2018-12-18T04:02:44.532Z,16.27
2018-12-18T04:05:11.934Z,22.53
2018-12-18T04:07:39.392Z,21.93
2018-12-18T04:10:06.792Z,17.60
2018-12-18T04:12:34.210Z,14.73
2018-12-18T04:15:01.628Z,13.97
2018-12-18T04:17:29.067Z,19.20
2018-12-18T04:19:56.476Z,17.70
2018-12-18T04:22:23.881Z,17.77
2018-12-18T04:24:51.317Z,14.23
2018-12-18T04:27:18.735Z,12.70
2018-12-18T04:29:46.169Z,21.03
2018-12-18T04:32:13.582Z,14.00
2018-12-18T04:34:43.146Z,16.60
2018-12-18T04:37:08.421Z,17.73
2018-12-18T04:39:35.877Z,15.97
2018-12-18T04:42:03.296Z,17.67
2018-12-18T04:44:30.709Z,17.70
2018-12-18T04:46:58.156Z,16.87
2018-12-18T04:49:25.552Z,17.53
2018-12-18T04:51:52.962Z,12.23
2018-12-18T04:54:20.396Z,17.87
2018-12-18T04:56:47.803Z,18.50
2018-12-18T04:59:15.213Z,20.40
2018-12-18T05:01:42.610Z,18.27
2018-12-18T05:04:10.063Z,19.83
2018-12-18T05:06:37.470Z,15.50
2018-12-18T05:09:04.912Z,21.33
2018-12-18T05:11:32.373Z,14.77
2018-12-18T05:13:59.787Z,17.93
2018-12-18T05:16:27.199Z,14.70
2018-12-18T05:18:54.597Z,16.97
2018-12-18T05:21:22.062Z,16.13
2018-12-18T05:23:49.472Z,14.87
2018-12-18T05:26:16.893Z,18.13
2018-12-18T05:28:44.299Z,12.20
2018-12-18T05:31:11.738Z,19.20
2018-12-18T05:33:39.151Z,15.50
2018-12-18T05:36:06.600Z,20.03
2018-12-18T05:38:34.033Z,17.60
2018-12-18T05:41:01.455Z,13.50
2018-12-18T05:43:28.893Z,12.67
2018-12-18T05:45:56.327Z,12.07
2018-12-18T05:48:23.750Z,15.00
2018-12-18T05:50:51.178Z,11.87
2018-12-18T05:53:18.621Z,15.10
2018-12-18T05:55:46.030Z,16.50
2018-12-18T05:58:13.514Z,13.07
2018-12-18T06:00:40.856Z,15.27
2018-12-18T06:03:08.280Z,22.20
2018-12-18T06:05:35.692Z,19.10
2018-12-18T06:08:03.107Z,12.43
2018-12-18T06:10:30.505Z,12.53
2018-12-18T06:12:57.940Z,12.93
2018-12-18T06:15:25.343Z,14.43
2018-12-18T06:17:52.760Z,9.80
2018-12-18T06:20:20.161Z,11.43
2018-12-18T06:22:47.559Z,17.70
2018-12-18T06:25:16.458Z,17.87
2018-12-18T06:27:42.410Z,11.37
2018-12-18T06:30:09.846Z,15.47
2018-12-18T06:32:37.326Z,14.93
2018-12-18T06:35:10.188Z,13.00
2018-12-18T06:37:32.101Z,22.53
2018-12-18T06:39:59.570Z,15.47
2018-12-18T06:42:26.962Z,17.30
2018-12-18T06:44:54.383Z,12.33
2018-12-18T06:47:21.782Z,11.23
2018-12-18T06:49:49.236Z,12.07
2018-12-18T06:52:16.637Z,11.17
2018-12-18T06:54:44.041Z,14.47
2018-12-18T06:57:11.474Z,10.50
2018-12-18T06:59:38.872Z,16.93
2018-12-18T07:02:06.292Z,14.57
2018-12-18T07:04:33.714Z,15.27
2018-12-18T07:07:01.153Z,12.97
2018-12-18T07:09:28.561Z,12.00
2018-12-18T07:11:55.977Z,15.73
2018-12-18T07:14:23.409Z,14.77
2018-12-18T07:16:50.846Z,14.47
2018-12-18T07:19:18.306Z,12.33
2018-12-18T07:21:45.712Z,10.83
2018-12-18T07:24:14.272Z,8.37
2018-12-18T07:26:40.610Z,13.40
2018-12-18T07:29:08.064Z,12.53
2018-12-18T07:31:35.464Z,9.90
2018-12-18T07:34:02.931Z,12.63
2018-12-18T07:36:30.335Z,12.77
2018-12-18T07:38:57.751Z,8.77
2018-12-18T07:41:25.178Z,16.47
2018-12-18T07:43:52.578Z,13.07
2018-12-18T07:46:20.003Z,11.47
2018-12-18T07:48:47.407Z,13.50
2018-12-18T07:51:14.831Z,10.70
2018-12-18T07:53:42.250Z,13.10
2018-12-18T07:56:09.669Z,18.83
2018-12-18T07:58:37.070Z,8.23
2018-12-18T08:01:04.494Z,12.80
2018-12-18T08:03:31.903Z,9.63
2018-12-18T08:05:59.310Z,10.47
2018-12-18T08:08:26.725Z,16.67
2018-12-18T08:10:54.134Z,10.13
2018-12-18T08:13:21.561Z,12.67
2018-12-18T08:15:49.451Z,8.97
2018-12-18T08:18:16.853Z,18.80
2018-12-18T08:20:44.261Z,13.23
2018-12-18T08:23:11.692Z,11.97
2018-12-18T08:25:39.159Z,12.20
2018-12-18T08:28:06.595Z,8.73
2018-12-18T08:30:34.002Z,11.87
2018-12-18T08:33:01.455Z,13.70
2018-12-18T08:35:28.866Z,9.20
2018-12-18T08:37:56.274Z,9.37
2018-12-18T08:40:23.706Z,13.33
2018-12-18T08:42:51.123Z,9.93
2018-12-18T08:45:18.581Z,7.90
2018-12-18T08:47:46.017Z,11.67
2018-12-18T08:50:13.443Z,9.23
2018-12-18T08:52:40.867Z,9.60
2018-12-18T08:55:08.301Z,9.50
2018-12-18T08:57:35.851Z,12.07
2018-12-18T09:00:03.263Z,7.70
2018-12-18T09:02:30.667Z,9.07
2018-12-18T09:04:58.130Z,9.00
2018-12-18T09:07:25.537Z,10.70
2018-12-18T09:09:52.962Z,9.33
2018-12-18T09:12:20.366Z,12.50
2018-12-18T09:14:56.806Z,10.23
2018-12-18T09:17:24.210Z,10.70
2018-12-18T09:19:51.634Z,16.93
2018-12-18T09:22:19.032Z,9.97
2018-12-18T09:24:46.482Z,12.50
2018-12-18T09:27:13.886Z,9.97
2018-12-18T09:29:41.303Z,8.67
2018-12-18T09:32:08.727Z,9.20
2018-12-18T09:34:36.143Z,9.03
2018-12-18T09:37:03.572Z,12.40
2018-12-18T09:39:42.986Z,7.27
2018-12-18T09:42:28.567Z,10.03
2018-12-18T09:44:55.974Z,9.53
2018-12-18T09:47:23.429Z,8.37
2018-12-18T09:49:50.795Z,9.33
2018-12-18T09:52:18.234Z,9.37
2018-12-18T09:54:45.672Z,10.07
2018-12-18T09:57:31.589Z,11.10
2018-12-18T09:59:59.032Z,10.10
2018-12-18T10:02:26.455Z,12.00
2018-12-18T10:04:53.883Z,8.17
2018-12-18T10:07:21.298Z,12.40
2018-12-18T10:09:48.745Z,13.93
2018-12-18T10:12:16.176Z,9.00
2018-12-18T10:14:43.583Z,6.67
2018-12-18T10:17:11.022Z,9.37
2018-12-18T10:19:38.496Z,9.43
2018-12-18T10:22:05.899Z,6.43
2018-12-18T10:24:33.312Z,11.37
2018-12-18T10:27:00.746Z,10.33
2018-12-18T10:29:28.156Z,7.67
2018-12-18T10:31:55.585Z,8.90
2018-12-18T10:34:23.032Z,15.13
2018-12-18T10:36:50.482Z,6.20
2018-12-18T10:39:17.936Z,9.13
2018-12-18T10:41:45.388Z,9.97
2018-12-18T10:44:12.823Z,11.23
2018-12-18T10:46:40.269Z,11.23
2018-12-18T10:49:07.680Z,8.90
2018-12-18T10:51:35.137Z,9.90
2018-12-18T10:54:02.552Z,9.43
2018-12-18T10:56:29.974Z,6.13
2018-12-18T10:58:57.462Z,10.87
2018-12-18T11:01:42.963Z,6.70
2018-12-18T11:04:10.395Z,14.10
2018-12-18T11:06:37.818Z,9.07
2018-12-18T11:09:05.308Z,14.97
2018-12-18T11:11:32.657Z,6.97
2018-12-18T11:14:00.077Z,7.07
2018-12-18T11:16:27.539Z,7.87
2018-12-18T11:18:54.916Z,8.03
2018-12-18T11:21:22.341Z,5.97
2018-12-18T11:23:49.753Z,9.93
2018-12-18T11:26:17.180Z,5.37
2018-12-18T11:28:44.603Z,9.73
2018-12-18T11:31:12.034Z,6.10
2018-12-18T11:33:39.452Z,6.43
2018-12-18T11:36:06.898Z,12.43
2018-12-18T11:38:34.351Z,9.23
2018-12-18T11:41:01.844Z,10.87
2018-12-18T11:43:29.263Z,9.47
2018-12-18T11:45:56.701Z,8.93
2018-12-18T11:48:24.123Z,9.10
2018-12-18T11:50:51.602Z,7.53
2018-12-18T11:53:19.015Z,8.57
2018-12-18T11:55:46.420Z,9.97
2018-12-18T11:58:13.828Z,9.90
2018-12-18T12:00:41.231Z,7.00
2018-12-18T12:03:08.651Z,9.73
2018-12-18T12:05:36.063Z,6.00
2018-12-18T12:08:03.505Z,11.40
2018-12-18T12:10:30.921Z,10.10
2018-12-18T12:12:58.334Z,7.93
2018-12-18T12:15:25.798Z,11.73
2018-12-18T12:17:53.211Z,9.37
2018-12-18T12:20:20.670Z,7.00
2018-12-18T12:22:48.092Z,8.37
2018-12-18T12:25:15.508Z,8.10
2018-12-18T12:28:01.213Z,10.27
2018-12-18T12:30:28.654Z,7.17
2018-12-18T12:32:56.035Z,8.90
2018-12-18T12:35:23.471Z,7.80
2018-12-18T12:37:50.893Z,8.20
2018-12-18T12:40:18.319Z,7.03
2018-12-18T12:42:45.745Z,10.87
2018-12-18T12:45:13.178Z,7.53
2018-12-18T12:47:40.606Z,9.67
2018-12-18T12:50:08.016Z,8.43
2018-12-18T12:52:35.426Z,7.23
2018-12-18T12:55:02.857Z,8.77
2018-12-18T12:57:30.282Z,10.33
2018-12-18T12:59:57.710Z,12.60
2018-12-18T13:02:25.130Z,6.97
2018-12-18T13:04:52.539Z,8.03
2018-12-18T13:07:19.976Z,7.83
2018-12-18T13:09:47.413Z,8.17
2018-12-18T13:12:14.834Z,5.97
2018-12-18T13:14:42.278Z,8.23
2018-12-18T13:17:09.687Z,5.97
2018-12-18T13:19:37.087Z,6.57
2018-12-18T13:22:04.560Z,9.27
2018-12-18T13:24:31.986Z,8.10
2018-12-18T13:26:59.442Z,6.13
2018-12-18T13:29:26.859Z,7.60
2018-12-18T13:31:54.301Z,10.60
2018-12-18T13:34:21.769Z,7.00
2018-12-18T13:36:49.167Z,5.17
2018-12-18T13:39:16.611Z,5.17
2018-12-18T13:41:44.017Z,8.47
2018-12-18T13:44:11.450Z,5.27
2018-12-18T13:46:38.853Z,7.07
2018-12-18T13:49:06.267Z,8.60
2018-12-18T13:51:33.704Z,8.63
2018-12-18T13:54:01.116Z,8.07
2018-12-18T13:56:28.570Z,5.43
2018-12-18T13:58:55.967Z,6.83
2018-12-18T14:01:23.381Z,8.20
2018-12-18T14:03:50.814Z,11.43
2018-12-18T14:06:18.227Z,5.90
2018-12-18T14:08:45.655Z,6.50
2018-12-18T14:11:13.049Z,8.27
2018-12-18T14:13:40.506Z,8.07
2018-12-18T14:16:07.916Z,6.07
2018-12-18T14:18:35.360Z,5.43
2018-12-18T14:21:02.775Z,6.77
2018-12-18T14:23:30.190Z,4.83
2018-12-18T14:25:57.641Z,9.77
2018-12-18T14:28:25.080Z,7.17
2018-12-18T14:30:52.464Z,5.70
2018-12-18T14:33:19.924Z,3.97
2018-12-18T14:35:47.331Z,10.13
2018-12-18T14:38:14.784Z,9.30
2018-12-18T14:40:42.185Z,5.73
2018-12-18T14:43:09.600Z,8.67
2018-12-18T14:45:37.032Z,4.60
2018-12-18T14:48:04.441Z,5.17
2018-12-18T14:50:31.870Z,6.00
2018-12-18T14:52:59.271Z,6.90
2018-12-18T14:55:26.802Z,9.30
2018-12-18T14:57:54.194Z,7.63
2018-12-18T15:00:21.617Z,10.37
2018-12-18T15:02:49.061Z,6.73
2018-12-18T15:05:17.755Z,7.95
2018-12-18T15:07:43.912Z,8.10
2018-12-18T15:10:11.306Z,8.20
2018-12-18T15:12:38.742Z,7.97
2018-12-18T15:15:06.172Z,7.47
2018-12-18T15:17:33.580Z,7.67
2018-12-18T15:20:01.031Z,6.43
2018-12-18T15:22:28.439Z,5.63
2018-12-18T15:24:55.860Z,5.87
2018-12-18T15:27:23.266Z,6.50
2018-12-18T15:29:50.714Z,7.17
2018-12-18T15:32:18.122Z,4.50
2018-12-18T15:34:45.514Z,6.77
2018-12-18T15:37:12.949Z,6.13
2018-12-18T15:39:40.344Z,8.23
2018-12-18T15:42:07.785Z,7.87
2018-12-18T15:44:35.191Z,6.30
2018-12-18T15:47:02.650Z,9.03
2018-12-18T15:49:30.064Z,6.43
2018-12-18T15:51:57.506Z,6.53
2018-12-18T15:54:24.907Z,7.70
2018-12-18T15:56:52.329Z,5.73
2018-12-18T15:59:19.771Z,7.03
2018-12-18T16:01:47.251Z,8.23
2018-12-18T16:04:14.733Z,7.27
2018-12-18T16:06:42.160Z,6.17
2018-12-18T16:09:09.566Z,5.97
2018-12-18T16:11:36.997Z,7.20
2018-12-18T16:14:04.397Z,8.27
2018-12-18T16:16:31.817Z,8.53
2018-12-18T16:18:59.254Z,8.00
2018-12-18T16:21:26.702Z,7.43
2018-12-18T16:23:54.102Z,9.87
2018-12-18T16:26:21.501Z,6.73
2018-12-18T16:28:48.922Z,7.90
2018-12-18T16:31:16.341Z,6.30
2018-12-18T16:33:43.746Z,4.97
2018-12-18T16:36:11.188Z,4.50
2018-12-18T16:38:38.612Z,8.13
2018-12-18T16:41:06.049Z,4.13
2018-12-18T16:43:33.457Z,7.50
2018-12-18T16:46:00.878Z,5.63
2018-12-18T16:48:28.294Z,6.40
2018-12-18T16:50:55.730Z,5.90
2018-12-18T16:53:23.193Z,7.23
2018-12-18T16:55:50.588Z,5.03
2018-12-18T16:58:19.017Z,5.70
2018-12-18T17:00:45.419Z,6.70
2018-12-18T17:03:12.855Z,6.43
2018-12-18T17:05:40.239Z,5.23
2018-12-18T17:08:07.643Z,7.97
2018-12-18T17:10:35.077Z,6.80
2018-12-18T17:13:02.476Z,7.57
2018-12-18T17:15:29.918Z,6.07
2018-12-18T17:17:57.322Z,10.03
2018-12-18T17:20:24.760Z,5.73
2018-12-18T17:22:52.205Z,6.73
2018-12-18T17:25:19.615Z,6.77
2018-12-18T17:27:47.041Z,7.00
2018-12-18T17:30:14.485Z,7.20
2018-12-18T17:32:41.886Z,7.77
2018-12-18T17:35:09.337Z,8.10
2018-12-18T17:37:36.918Z,6.77
2018-12-18T17:40:04.351Z,9.87
2018-12-18T17:42:31.748Z,6.53
2018-12-18T17:44:59.151Z,6.30
2018-12-18T17:47:26.586Z,5.97
2018-12-18T17:49:53.984Z,9.77
2018-12-18T17:52:21.422Z,10.20
2018-12-18T17:54:48.832Z,8.87
2018-12-18T17:57:16.258Z,7.03
2018-12-18T17:59:43.706Z,8.73
2018-12-18T18:02:11.133Z,8.33
2018-12-18T18:04:38.542Z,7.23
2018-12-18T18:07:05.970Z,7.70
2018-12-18T18:09:33.385Z,8.27
2018-12-18T18:12:00.835Z,9.63
2018-12-18T18:14:28.263Z,8.70
2018-12-18T18:16:55.692Z,8.90
2018-12-18T18:19:23.119Z,8.67
2018-12-18T18:21:50.549Z,8.87
2018-12-18T18:24:17.987Z,8.10
2018-12-18T18:26:45.396Z,10.20
2018-12-18T18:29:12.818Z,10.70
2018-12-18T18:31:40.225Z,7.50
2018-12-18T18:34:07.734Z,9.73
2018-12-18T18:36:35.101Z,9.80
2018-12-18T18:39:02.543Z,7.40
2018-12-18T18:41:29.945Z,11.03
2018-12-18T18:43:57.438Z,8.80
2018-12-18T18:46:24.918Z,7.97
2018-12-18T18:48:52.337Z,11.40
2018-12-18T18:51:19.801Z,7.43
2018-12-18T18:53:49.899Z,9.47
2018-12-18T18:56:17.370Z,8.97
2018-12-18T18:58:44.794Z,8.63
2018-12-18T19:01:12.306Z,8.53
2018-12-18T19:03:39.770Z,8.90
2018-12-18T19:06:07.203Z,15.87
2018-12-18T19:08:34.637Z,9.37
2018-12-18T19:11:02.047Z,8.50
2018-12-18T19:13:29.495Z,8.90
2018-12-18T19:15:56.983Z,8.63
2018-12-18T19:18:24.422Z,9.30
2018-12-18T19:20:51.836Z,9.13
2018-12-18T19:23:19.238Z,8.60
2018-12-18T19:25:46.716Z,8.73
2018-12-18T19:28:14.117Z,8.63
2018-12-18T19:30:41.568Z,6.97
2018-12-18T19:33:08.964Z,7.47
2018-12-18T19:35:36.444Z,7.83
2018-12-18T19:38:03.851Z,8.20
2018-12-18T19:40:31.289Z,7.20
2018-12-18T19:42:58.694Z,5.97
2018-12-18T19:45:26.410Z,8.67
2018-12-18T19:47:53.823Z,7.17
2018-12-18T19:50:21.281Z,6.60
2018-12-18T19:52:48.704Z,8.30
2018-12-18T19:55:16.166Z,8.03
2018-12-18T19:57:43.581Z,5.73
2018-12-18T20:00:11.073Z,6.43
2018-12-18T20:02:38.551Z,5.67
2018-12-18T20:05:05.951Z,5.17
2018-12-18T20:07:33.407Z,5.33
2018-12-18T20:10:00.842Z,3.67
2018-12-18T20:12:28.277Z,3.50
2018-12-18T20:14:55.671Z,4.50
2018-12-18T20:17:23.177Z,3.60
2018-12-18T20:19:50.490Z,4.27
2018-12-18T20:22:17.919Z,5.83
2018-12-18T20:24:45.743Z,4.50
2018-12-18T20:27:13.174Z,5.60
2018-12-18T20:29:40.571Z,4.63
2018-12-18T20:32:08.066Z,3.37
2018-12-18T20:34:35.474Z,3.87
2018-12-18T20:37:02.901Z,3.00
2018-12-18T20:39:30.367Z,5.57
2018-12-18T20:41:57.780Z,5.47
2018-12-18T20:44:25.275Z,3.93
2018-12-18T20:46:52.668Z,4.57
2018-12-18T20:49:20.132Z,3.87
2018-12-18T20:51:47.565Z,5.23
2018-12-18T20:54:15.014Z,5.53
2018-12-18T20:56:42.430Z,5.23
2018-12-18T20:59:09.910Z,4.23
2018-12-18T21:01:37.388Z,5.27
2018-12-18T21:04:04.784Z,4.50
2018-12-18T21:06:32.209Z,5.87
2018-12-18T21:08:59.613Z,5.23
2018-12-18T21:11:27.044Z,5.23
2018-12-18T21:13:54.465Z,4.63
2018-12-18T21:16:21.886Z,5.37
2018-12-18T21:18:49.279Z,5.27
2018-12-18T21:21:16.714Z,6.43
2018-12-18T21:23:44.153Z,3.97
2018-12-18T21:26:11.611Z,4.47
2018-12-18T21:28:39.033Z,4.53
2018-12-18T21:31:06.443Z,5.73
2018-12-18T21:33:33.922Z,6.13
2018-12-18T21:36:01.378Z,5.53
2018-12-18T21:38:30.456Z,3.77
2018-12-18T21:40:56.257Z,4.87
2018-12-18T21:43:23.762Z,4.60
2018-12-18T21:45:51.156Z,7.90
2018-12-18T21:48:18.591Z,4.63
2018-12-18T21:50:46.045Z,4.03
2018-12-18T21:53:13.457Z,5.77
2018-12-18T21:55:40.910Z,4.30
2018-12-18T21:58:08.320Z,4.80
2018-12-18T22:00:35.726Z,7.50
2018-12-18T22:03:03.242Z,4.37
2018-12-18T22:05:33.557Z,5.97
2018-12-18T22:08:01.029Z,4.90
2018-12-18T22:10:28.440Z,3.97
2018-12-18T22:12:55.868Z,4.17
2018-12-18T22:15:23.257Z,4.47
2018-12-18T22:17:50.678Z,4.67
2018-12-18T22:20:18.103Z,4.27
2018-12-18T22:22:45.622Z,4.70
2018-12-18T22:25:13.019Z,4.23
2018-12-18T22:27:40.488Z,4.13
2018-12-18T22:30:07.892Z,5.17
2018-12-18T22:32:35.286Z,5.90
2018-12-18T22:35:02.707Z,5.30
2018-12-18T22:37:30.124Z,5.63
2018-12-18T22:39:57.566Z,4.83
2018-12-18T22:42:24.982Z,4.40
2018-12-18T22:44:52.408Z,4.10
2018-12-18T22:47:19.818Z,5.47
2018-12-18T22:49:47.247Z,5.17
2018-12-18T22:52:14.663Z,4.10
2018-12-18T22:54:42.096Z,6.77
2018-12-18T22:57:09.490Z,6.70
2018-12-18T22:59:36.908Z,5.33
2018-12-18T23:02:04.344Z,4.70
2018-12-18T23:04:31.741Z,5.57
2018-12-18T23:06:59.149Z,4.73
2018-12-18T23:09:26.605Z,3.80
2018-12-18T23:11:54.034Z,4.40
2018-12-18T23:14:21.433Z,3.73
2018-12-18T23:16:48.833Z,5.50
2018-12-18T23:19:16.249Z,6.17
2018-12-18T23:21:43.651Z,4.23
2018-12-18T23:24:11.066Z,5.70
2018-12-18T23:26:38.495Z,4.30
2018-12-18T23:29:05.916Z,6.27
2018-12-18T23:31:33.341Z,6.20
2018-12-18T23:34:00.798Z,3.80
2018-12-18T23:36:28.197Z,4.93
2018-12-18T23:38:57.070Z,3.40
2018-12-18T23:41:23.080Z,4.67
2018-12-18T23:43:50.492Z,4.10
2018-12-18T23:46:17.936Z,4.57
2018-12-18T23:48:45.347Z,3.43
2018-12-18T23:51:12.743Z,5.87
2018-12-18T23:53:40.169Z,5.80
2018-12-18T23:56:07.563Z,4.83
2018-12-18T23:58:34.998Z,5.67
